Betagas — V2KA8 — position and weather

sailwx.info

Track history (hours):
 
Tides and Currents Weather Stations Pressure Air Temp Water Temp Dewpoint Dewpoint Depression Visibility Wind Speed Wind Dir Waves Ship Positions

Betagas

Last reported at 2014-Dec-21 19:32 UTC. Time now 2014-Dec-22 00:39 UTC.
Position N 54°12' E 007°03'.

Length 114.6 m; beam 15.7 m; draft 7.4 m.

Type: Tanker. MMSI: 304050636.

Date/timePositionNaut miles runAvg speedWind from/ knotsBaromVisibWave heightAir tempDewpointWater temp
2014-Dec-21 19:32N 54°12' E 007°03'5 5.5
2014-Dec-21 18:33N 54°12' E 007°12'8 8.3
2014-Dec-21 17:33N 54°12' E 007°27'1010.2
2014-Dec-21 16:33N 54°09' E 007°43'1313.1
2014-Dec-21 15:33N 54°02' E 008°02'10 9.7
2014-Dec-21 14:34N 54°06' E 008°18'1111.3
2014-Dec-21 13:33N 54°17' E 008°23'1110.5
2014-Dec-21 12:33N 54°25' E 008°33'  
2014-Dec-13 13:10N 54°26' E 008°41'710.8
2014-Dec-13 12:33N 54°23' E 008°31'1010.4
2014-Dec-13 11:33N 54°14' E 008°22'1212.0
2014-Dec-13 10:33N 54°03' E 008°15'4 4.0
2014-Dec-13 09:34N 53°60' E 008°19'9 9.1
2014-Dec-13 08:33N 53°60' E 008°03'6 5.7
2014-Dec-13 07:33N 54°05' E 008°06'2 1.6
2014-Dec-13 06:33N 54°05' E 008°04'0 0.2
2014-Dec-13 05:33N 54°05' E 008°04'1 0.6
2014-Dec-13 04:33N 54°05' E 008°05'1 0.6
2014-Dec-13 03:33N 54°05' E 008°06'1 1.2
2014-Dec-13 02:33N 54°05' E 008°04'1 1.2
2014-Dec-13 01:33N 54°04' E 008°04'0 0.4
2014-Dec-13 00:33N 54°04' E 008°05'0 0.1
2014-Dec-12 23:33N 54°04' E 008°05'0 0.4
2014-Dec-12 22:33N 54°04' E 008°04'0 0.4
2014-Dec-12 21:33N 54°04' E 008°03'0 0.4
2014-Dec-12 20:33N 54°04' E 008°03'0 0.5
2014-Dec-12 19:33N 54°04' E 008°02'1 1.1
2014-Dec-12 18:33N 54°03' E 008°02'1 1.0
2014-Dec-12 17:33N 54°04' E 008°02'1 0.9
2014-Dec-12 16:33N 54°05' E 008°02'1 0.8
2014-Dec-12 15:33N 54°06' E 008°02'1 0.5
2014-Dec-12 14:33N 54°06' E 008°03'1 1.1
2014-Dec-12 13:33N 54°06' E 008°05'0 0.4
2014-Dec-12 12:33N 54°05' E 008°05'2 2.2
2014-Dec-12 11:33N 54°03' E 008°06'2 1.5
2014-Dec-12 10:32N 54°03' E 008°09'0 0.1
2014-Dec-12 09:32N 54°03' E 008°08'0 0.0
2014-Dec-12 08:32N 54°03' E 008°08'0 0.0
2014-Dec-12 07:32N 54°03' E 008°08'3 3.0
2014-Dec-12 06:33N 54°04' E 008°03'2 1.5
2014-Dec-12 05:33N 54°05' E 008°04'4 4.3
2014-Dec-12 04:33N 54°05' E 007°56'1 1.2
2014-Dec-12 03:33N 54°05' E 007°58'1 0.8
2014-Dec-12 02:33N 54°05' E 007°59'0 0.4
2014-Dec-12 01:33N 54°06' E 007°60'1 0.7
2014-Dec-12 00:33N 54°06' E 008°01'1 0.9
2014-Dec-11 23:33N 54°06' E 008°02'1 0.5
2014-Dec-11 22:33N 54°05' E 008°03'0 0.4
2014-Dec-11 21:33N 54°05' E 008°02'1 1.0
2014-Dec-11 20:33N 54°05' E 008°04'1 0.6
2014-Dec-11 19:33N 54°04' E 008°05'  
Track history (hours):
 
Tides and Currents Weather Stations Pressure Air Temp Water Temp Dewpoint Dewpoint Depression Visibility Wind Speed Wind Dir Waves Ship Positions

Betagas

Last reported at 2014-Dec-21 19:32 UTC. Time now 2014-Dec-22 00:39 UTC.
Position N 54°12' E 007°03'.

Length 114.6 m; beam 15.7 m; draft 7.4 m.

Type: Tanker. MMSI: 304050636.

Date/timePositionNaut miles runAvg speedWind from/ knotsBaromVisibWave heightAir tempDewpointWater temp
2014-Dec-21 19:32N 54°12' E 007°03'5 5.5
2014-Dec-21 18:33N 54°12' E 007°12'8 8.3
2014-Dec-21 17:33N 54°12' E 007°27'1010.2
2014-Dec-21 16:33N 54°09' E 007°43'1313.1
2014-Dec-21 15:33N 54°02' E 008°02'10 9.7
2014-Dec-21 14:34N 54°06' E 008°18'1111.3
2014-Dec-21 13:33N 54°17' E 008°23'1110.5
2014-Dec-21 12:33N 54°25' E 008°33'  
2014-Dec-13 13:10N 54°26' E 008°41'710.8
2014-Dec-13 12:33N 54°23' E 008°31'1010.4
2014-Dec-13 11:33N 54°14' E 008°22'1212.0
2014-Dec-13 10:33N 54°03' E 008°15'4 4.0
2014-Dec-13 09:34N 53°60' E 008°19'9 9.1
2014-Dec-13 08:33N 53°60' E 008°03'6 5.7
2014-Dec-13 07:33N 54°05' E 008°06'2 1.6
2014-Dec-13 06:33N 54°05' E 008°04'0 0.2
2014-Dec-13 05:33N 54°05' E 008°04'1 0.6
2014-Dec-13 04:33N 54°05' E 008°05'1 0.6
2014-Dec-13 03:33N 54°05' E 008°06'1 1.2
2014-Dec-13 02:33N 54°05' E 008°04'1 1.2
2014-Dec-13 01:33N 54°04' E 008°04'0 0.4
2014-Dec-13 00:33N 54°04' E 008°05'0 0.1
2014-Dec-12 23:33N 54°04' E 008°05'0 0.4
2014-Dec-12 22:33N 54°04' E 008°04'0 0.4
2014-Dec-12 21:33N 54°04' E 008°03'0 0.4
2014-Dec-12 20:33N 54°04' E 008°03'0 0.5
2014-Dec-12 19:33N 54°04' E 008°02'1 1.1
2014-Dec-12 18:33N 54°03' E 008°02'1 1.0
2014-Dec-12 17:33N 54°04' E 008°02'1 0.9
2014-Dec-12 16:33N 54°05' E 008°02'1 0.8
2014-Dec-12 15:33N 54°06' E 008°02'1 0.5
2014-Dec-12 14:33N 54°06' E 008°03'1 1.1
2014-Dec-12 13:33N 54°06' E 008°05'0 0.4
2014-Dec-12 12:33N 54°05' E 008°05'2 2.2
2014-Dec-12 11:33N 54°03' E 008°06'2 1.5
2014-Dec-12 10:32N 54°03' E 008°09'0 0.1
2014-Dec-12 09:32N 54°03' E 008°08'0 0.0
2014-Dec-12 08:32N 54°03' E 008°08'0 0.0
2014-Dec-12 07:32N 54°03' E 008°08'3 3.0
2014-Dec-12 06:33N 54°04' E 008°03'2 1.5
2014-Dec-12 05:33N 54°05' E 008°04'4 4.3
2014-Dec-12 04:33N 54°05' E 007°56'1 1.2
2014-Dec-12 03:33N 54°05' E 007°58'1 0.8
2014-Dec-12 02:33N 54°05' E 007°59'0 0.4
2014-Dec-12 01:33N 54°06' E 007°60'1 0.7
2014-Dec-12 00:33N 54°06' E 008°01'1 0.9
2014-Dec-11 23:33N 54°06' E 008°02'1 0.5
2014-Dec-11 22:33N 54°05' E 008°03'0 0.4
2014-Dec-11 21:33N 54°05' E 008°02'1 1.0
2014-Dec-11 20:33N 54°05' E 008°04'1 0.6
2014-Dec-11 19:33N 54°04' E 008°05'  

Dump ship's entire track history